Terminal Aerodrome Forecast
Issued by NWS

Current Version | Previous Version | Text Only | Print | Product List | Glossary On
Versions: 1 2 3 4 5 6 7 8 9 10 11 12 13
000
FTUS44 KEPZ 220500
TAFTCS
TAF
KTCS 220534Z 2206/2306 30008KT P6SM SCT100 BKN250
     FM220900 30008KT P6SM FEW100 SCT250
     FM222100 17009KT P6SM VCTS SCT070CB BKN150=

USA.gov is the U.S. government's official web portal to all federal, state and local government web resources and services.